Time;durP1;ratioP1;P1;durP2;ratioP2;P2;SDS_P1;SDS_P2;PMS_P1;PMS_P2;Temp;Humidity;BMP_temperature;BMP_pressure;BME280_temperature;BME280_humidity;BME280_pressure;Samples;Min_cycle;Max_cycle;Signal;HPM_P1;HPM_P2
2022/11/25 05:50:29;;;;;;;179.23;53.08;;;;;;;0.74;100.00;98928.39;2294861;77;22916;-54
2022/11/25 05:53:30;;;;;;;172.93;51.28;;;;;;;1.19;100.00;98939.95;2250131;78;21012;-54
2022/11/25 05:56:31;;;;;;;173.87;52.85;;;;;;;1.95;100.00;98939.56;2249489;78;21534;-56
2022/11/25 05:59:31;;;;;;;177.62;53.45;;;;;;;2.01;100.00;98946.75;2246848;78;21478;-55
2022/11/25 06:02:31;;;;;;;167.57;51.70;;;;;;;2.19;100.00;98947.18;2254940;79;20976;-54
2022/11/25 06:05:32;;;;;;;161.32;52.75;;;;;;;2.30;100.00;98953.36;2299129;77;21013;-54
2022/11/25 06:08:33;;;;;;;146.43;45.95;;;;;;;2.68;100.00;98953.66;2302519;77;20968;-55
2022/11/25 06:11:33;;;;;;;141.10;49.60;;;;;;;2.54;100.00;98958.36;2293926;77;21007;-55
2022/11/25 06:14:34;;;;;;;155.57;53.55;;;;;;;2.51;100.00;98963.63;2298593;77;20998;-55
2022/11/25 06:17:34;;;;;;;132.72;48.75;;;;;;;2.65;100.00;98969.75;2293404;77;21057;-55
2022/11/25 06:20:35;;;;;;;129.82;44.95;;;;;;;2.85;100.00;98978.28;2304972;77;21490;-55
2022/11/25 06:23:35;;;;;;;116.25;41.58;;;;;;;2.86;100.00;98984.72;2306924;77;21552;-55
2022/11/25 06:26:36;;;;;;;108.97;39.65;;;;;;;2.91;100.00;98990.60;2307395;77;21568;-55
2022/11/25 06:29:36;;;;;;;110.28;40.05;;;;;;;2.93;100.00;98993.16;2303135;77;21023;-55
2022/11/25 06:32:37;;;;;;;106.78;38.15;;;;;;;2.99;100.00;98990.84;2304000;77;21015;-55
2022/11/25 06:35:37;;;;;;;90.95;37.80;;;;;;;3.21;100.00;98980.28;2302567;77;20964;-55
2022/11/25 06:38:38;;;;;;;94.25;36.42;;;;;;;3.55;100.00;98990.98;2302399;77;21011;-54
2022/11/25 06:41:38;;;;;;;90.12;35.10;;;;;;;3.52;100.00;98992.80;2307589;77;20952;-54
2022/11/25 06:44:39;;;;;;;105.58;39.10;;;;;;;3.66;100.00;98992.41;2302488;77;21036;-55
2022/11/25 06:47:39;;;;;;;90.10;36.17;;;;;;;3.93;100.00;98991.55;2307053;77;21015;-54
2022/11/25 06:50:40;;;;;;;92.70;35.08;;;;;;;4.14;100.00;98991.33;2303955;77;20993;-55
2022/11/25 06:53:40;;;;;;;91.67;35.83;;;;;;;4.09;100.00;98994.50;2303125;77;21577;-55
2022/11/25 06:56:41;;;;;;;92.82;37.55;;;;;;;4.23;100.00;99001.02;2299265;77;21069;-55
2022/11/25 06:59:44;;;;;;;94.67;38.83;;;;;;;4.18;100.00;99002.48;2299299;77;21031;-56
2022/11/25 07:02:44;;;;;;;91.57;37.20;;;;;;;4.84;100.00;98992.90;2237483;78;21552;-55
2022/11/25 07:05:44;;;;;;;95.83;37.42;;;;;;;4.84;100.00;98992.90;2257823;78;20988;-54
2022/11/25 07:08:45;;;;;;;91.00;35.30;;;;;;;4.95;100.00;99001.17;2242368;78;20964;-55
2022/11/25 07:11:45;;;;;;;84.92;33.23;;;;;;;5.10;100.00;98999.80;2252841;78;21051;-55
2022/11/25 07:14:46;;;;;;;92.50;36.95;;;;;;;5.34;100.00;98998.50;2245488;78;21088;-55
2022/11/25 07:17:47;;;;;;;95.03;37.15;;;;;;;5.45;100.00;98998.95;2249411;78;21012;-55
2022/11/25 07:20:48;;;;;;;93.12;35.65;;;;;;;5.39;100.00;99004.39;2301892;77;21042;-55
2022/11/25 07:23:48;;;;;;;94.70;35.40;;;;;;;5.61;100.00;99006.19;2302051;77;20989;-55
2022/11/25 07:26:49;;;;;;;92.22;36.83;;;;;;;5.55;100.00;99008.11;2297743;77;21007;-55
2022/11/25 07:29:49;;;;;;;101.27;37.53;;;;;;;5.27;100.00;99013.94;2303031;77;21011;-58
2022/11/25 07:32:50;;;;;;;90.25;34.88;;;;;;;5.36;100.00;99018.35;2302504;77;21031;-58
2022/11/25 07:35:50;;;;;;;85.30;34.65;;;;;;;5.23;100.00;99014.52;2248273;78;20985;-57
2022/11/25 07:38:51;;;;;;;89.42;35.00;;;;;;;5.33;100.00;99013.70;2293253;77;21023;-58
2022/11/25 07:41:51;;;;;;;80.97;32.88;;;;;;;5.32;100.00;99016.77;2301761;77;21466;-58
2022/11/25 07:44:52;;;;;;;77.05;31.52;;;;;;;5.40;100.00;99015.17;2299304;77;20985;-58
2022/11/25 07:47:52;;;;;;;86.97;34.48;;;;;;;5.45;100.00;99014.56;2293830;77;21100;-58
2022/11/25 07:50:53;;;;;;;82.05;32.93;;;;;;;5.57;100.00;99022.36;2303602;77;20992;-58
2022/11/25 07:53:53;;;;;;;81.08;32.08;;;;;;;5.62;100.00;99025.65;2302471;77;21091;-55
2022/11/25 07:56:54;;;;;;;91.65;33.18;;;;;;;5.45;100.00;99027.57;2299662;77;21007;-55
2022/11/25 07:59:54;;;;;;;83.90;31.65;;;;;;;5.88;100.00;99025.11;2297639;77;21568;-55
2022/11/25 08:02:55;;;;;;;80.38;32.25;;;;;;;5.98;100.00;99028.25;2297663;77;21046;-58
2022/11/25 08:05:55;;;;;;;80.95;31.33;;;;;;;6.19;100.00;99027.84;2302322;77;21016;-56
2022/11/25 08:08:56;;;;;;;78.80;32.25;;;;;;;6.16;100.00;99028.83;2298452;77;20999;-55
2022/11/25 08:11:57;;;;;;;88.05;35.00;;;;;;;6.38;100.00;99029.27;2299457;77;21509;-55
2022/11/25 08:14:57;;;;;;;94.45;35.40;;;;;;;6.39;100.00;99031.81;2304908;77;21038;-57
2022/11/25 08:17:57;;;;;;;94.67;35.98;;;;;;;6.82;100.00;99031.77;2296474;77;20992;-57
2022/11/25 08:20:58;;;;;;;88.37;37.67;;;;;;;6.96;100.00;99039.02;2299217;77;20994;-57
2022/11/25 08:24:01;;;;;;;109.22;40.03;;;;;;;6.93;100.00;99036.07;2301393;77;21023;-56
2022/11/25 08:27:02;;;;;;;105.30;44.40;;;;;;;7.09;100.00;99041.94;2272217;77;20996;-56
2022/11/25 08:30:03;;;;;;;103.20;39.67;;;;;;;6.57;100.00;99046.30;2297369;77;21001;-56
2022/11/25 08:33:06;;;;;;;97.88;43.00;;;;;;;6.67;100.00;99046.30;2298112;77;21557;-56
2022/11/25 08:36:05;;;;;;;100.85;43.58;;;;;;;6.71;100.00;99043.09;2255432;77;20988;-56
2022/11/25 08:39:06;;;;;;;104.80;47.73;;;;;;;6.72;100.00;99045.67;2287587;77;21496;-57
2022/11/25 08:42:07;;;;;;;102.72;45.23;;;;;;;7.07;100.00;99043.31;2250857;78;21463;-57
2022/11/25 08:45:08;;;;;;;105.25;45.25;;;;;;;7.53;100.00;99047.41;2247986;78;20957;-55
2022/11/25 08:48:08;;;;;;;113.30;48.65;;;;;;;7.68;100.00;99047.19;2256202;78;20981;-56
2022/11/25 08:51:09;;;;;;;128.07;53.58;;;;;;;7.52;100.00;99044.43;2281555;77;20988;-57
2022/11/25 08:54:09;;;;;;;120.35;53.28;;;;;;;7.66;100.00;99042.48;2285072;78;20997;-57
2022/11/25 08:57:10;;;;;;;118.37;52.62;;;;;;;7.47;100.00;99040.73;2269730;78;21085;-57
2022/11/25 09:00:11;;;;;;;106.97;47.13;;;;;;;7.79;100.00;99041.86;2260500;77;21083;-57
2022/11/25 09:03:11;;;;;;;101.82;45.95;;;;;;;7.56;100.00;99048.60;2283837;77;21657;-57
2022/11/25 09:06:12;;;;;;;106.20;44.23;;;;;;;7.46;100.00;99054.69;2280120;77;21041;-58
2022/11/25 09:09:12;;;;;;;100.38;43.48;;;;;;;7.40;100.00;99054.97;2259876;77;20981;-57
2022/11/25 09:12:13;;;;;;;107.20;46.25;;;;;;;6.67;100.00;99056.73;2281269;77;21051;-59
2022/11/25 09:15:13;;;;;;;110.85;47.88;;;;;;;6.51;100.00;99056.98;2246821;78;21007;-58
2022/11/25 09:18:15;;;;;;;109.60;46.98;;;;;;;6.85;100.00;99057.73;2246562;78;21043;-58
2022/11/25 09:21:16;;;;;;;113.83;48.10;;;;;;;6.63;100.00;99052.55;2247271;77;21079;-58
2022/11/25 09:24:17;;;;;;;108.35;48.50;;;;;;;7.09;100.00;99048.00;2281940;77;20981;-58
2022/11/25 09:27:17;;;;;;;117.75;50.63;;;;;;;7.56;100.00;99048.60;2278068;77;20945;-58
2022/11/25 09:30:18;;;;;;;119.80;51.42;;;;;;;8.07;100.00;99054.09;2278755;77;21539;-58
2022/11/25 09:33:18;;;;;;;123.15;56.98;;;;;;;8.15;100.00;99057.20;2271608;77;21020;-57
2022/11/25 09:36:19;;;;;;;119.37;53.35;;;;;;;8.35;100.00;99060.61;2281312;77;21039;-59
2022/11/25 09:39:19;;;;;;;119.85;54.90;;;;;;;8.93;100.00;99052.54;2268724;77;21024;-58
2022/11/25 09:48:27;;;;;;;95.32;45.60;;;;;;;8.80;100.00;99061.46;2247168;78;20997;-58
2022/11/25 09:51:27;;;;;;;103.67;48.55;;;;;;;8.88;100.00;99061.09;2265877;77;21023;-58
2022/11/25 09:54:28;;;;;;;97.85;46.88;;;;;;;8.70;100.00;99061.54;2286857;77;21001;-58
2022/11/25 09:57:28;;;;;;;104.80;48.35;;;;;;;9.02;100.00;99068.23;2255835;77;21063;-57
2022/11/25 10:00:28;;;;;;;109.03;50.95;;;;;;;9.32;100.00;99059.30;2271414;77;21049;-58
2022/11/25 10:03:29;;;;;;;107.00;50.90;;;;;;;9.40;100.00;99064.11;2286942;77;20982;-58
2022/11/25 10:06:30;;;;;;;99.30;48.52;;;;;;;9.22;100.00;99072.92;2260334;77;20953;-58
2022/11/25 10:09:30;;;;;;;100.82;49.60;;;;;;;9.17;100.00;99064.00;2277685;77;20981;-58
2022/11/25 10:12:31;;;;;;;101.70;49.53;;;;;;;9.21;100.00;99072.09;2268938;77;21053;-57
2022/11/25 10:15:31;;;;;;;109.00;49.08;;;;;;;8.95;100.00;99072.08;2280383;78;20949;-58
2022/11/25 10:18:32;;;;;;;113.17;52.10;;;;;;;8.70;100.00;99069.86;2270424;78;21006;-56
2022/11/25 10:21:32;;;;;;;109.63;52.20;;;;;;;8.28;100.00;99071.36;2281595;77;20973;-56
2022/11/25 10:24:33;;;;;;;117.90;55.50;;;;;;;8.25;100.00;99068.91;2277580;77;21008;-55
2022/11/25 10:27:34;;;;;;;121.28;54.23;;;;;;;8.22;100.00;99071.66;2286729;77;21538;-56
2022/11/25 10:30:34;;;;;;;129.23;59.10;;;;;;;8.37;100.00;99075.30;2280037;77;20981;-55
2022/11/25 10:33:34;;;;;;;120.90;57.35;;;;;;;8.51;100.00;99071.23;2276423;77;20992;-55
2022/11/25 10:36:35;;;;;;;114.67;53.68;;;;;;;8.54;100.00;99068.46;2265866;77;20960;-55
2022/11/25 10:39:35;;;;;;;107.95;50.78;;;;;;;8.62;100.00;99069.77;2280400;77;20954;-55
2022/11/25 10:42:36;;;;;;;108.05;49.25;;;;;;;8.54;100.00;99061.45;2280983;77;21069;-55
2022/11/25 10:45:36;;;;;;;110.17;49.98;;;;;;;8.49;100.00;99063.43;2271597;77;20973;-55
2022/11/25 10:48:37;;;;;;;108.15;50.48;;;;;;;8.55;100.00;99071.00;2276873;77;21535;-55
2022/11/25 10:51:37;;;;;;;107.03;47.25;;;;;;;8.26;100.00;99068.43;2282540;77;21523;-55
2022/11/25 10:54:38;;;;;;;95.53;45.12;;;;;;;8.29;100.00;99067.84;2278888;77;21040;-55
2022/11/25 11:02:56;;;;;;;88.20;44.20;;;;;;;7.74;100.00;99063.44;2299282;77;23498;-59
2022/11/25 11:05:56;;;;;;;90.67;44.60;;;;;;;7.68;100.00;99072.83;2301501;77;21028;-59
2022/11/25 11:08:57;;;;;;;97.70;45.70;;;;;;;7.74;100.00;99067.79;2304738;77;21019;-58
2022/11/25 11:11:57;;;;;;;99.25;47.55;;;;;;;7.94;100.00;99062.52;2293947;77;20976;-58
2022/11/25 11:14:58;;;;;;;100.12;48.00;;;;;;;8.07;100.00;99066.69;2307683;77;20996;-58
2022/11/25 11:17:59;;;;;;;108.17;50.70;;;;;;;8.00;100.00;99065.75;2302455;77;21435;-58
2022/11/25 11:20:59;;;;;;;109.20;50.23;;;;;;;8.00;100.00;99065.28;2294355;77;21019;-58
2022/11/25 11:24:00;;;;;;;101.85;49.58;;;;;;;7.84;100.00;99068.22;2297646;77;21047;-59
2022/11/25 11:27:00;;;;;;;109.17;50.90;;;;;;;7.79;100.00;99068.44;2304473;77;21004;-59
2022/11/25 11:30:01;;;;;;;105.43;50.90;;;;;;;7.73;100.00;99072.61;2291460;77;20980;-58
2022/11/25 11:33:01;;;;;;;99.90;47.20;;;;;;;7.75;100.00;99074.72;2300516;77;20953;-58
2022/11/25 11:36:02;;;;;;;104.80;47.45;;;;;;;7.75;100.00;99079.94;2299869;77;21431;-58
2022/11/25 11:39:02;;;;;;;98.40;46.75;;;;;;;7.69;100.00;99079.75;2305017;77;20980;-58
2022/11/25 11:42:03;;;;;;;101.92;47.85;;;;;;;7.74;100.00;99086.94;2298721;77;20985;-59
2022/11/25 11:45:03;;;;;;;96.92;45.83;;;;;;;7.52;100.00;99080.97;2299990;77;20980;-59
2022/11/25 11:48:04;;;;;;;97.70;46.40;;;;;;;7.42;100.00;99080.05;2302493;77;20996;-58
2022/11/25 11:51:05;;;;;;;94.13;44.83;;;;;;;7.36;100.00;99086.02;2293091;77;21015;-58
2022/11/25 11:54:06;;;;;;;100.62;48.75;;;;;;;7.38;100.00;99085.02;2302384;77;21549;-58
2022/11/25 11:57:07;;;;;;;100.62;50.23;;;;;;;7.64;100.00;99089.55;2304985;77;21012;-58
2022/11/25 12:00:07;;;;;;;94.32;49.25;;;;;;;7.59;100.00;99092.84;2300457;77;20973;-59
2022/11/25 12:03:08;;;;;;;106.95;53.38;;;;;;;7.64;100.00;99093.46;2303048;77;20977;-59
2022/11/25 12:06:08;;;;;;;95.30;46.10;;;;;;;7.66;100.00;99097.30;2296245;77;20999;-58
2022/11/25 12:09:09;;;;;;;88.07;44.55;;;;;;;7.78;100.00;99097.60;2306579;77;21399;-59
2022/11/25 12:12:11;;;;;;;83.58;42.80;;;;;;;8.01;100.00;99089.66;2299662;77;20956;-58
2022/11/25 12:15:12;;;;;;;;;;;;;;;8.01;100.00;99094.41;2309043;77;21052;-58
2022/11/25 12:18:13;;;;;;;75.15;36.80;;;;;;;7.91;100.00;99105.73;2301532;77;20172;-58
2022/11/25 12:21:13;;;;;;;78.12;40.03;;;;;;;7.83;100.00;99109.61;2299508;77;21095;-58
2022/11/25 12:24:14;;;;;;;75.30;38.48;;;;;;;7.82;100.00;99107.47;2295210;77;20979;-58
2022/11/25 12:27:14;;;;;;;79.15;38.38;;;;;;;7.95;100.00;99108.59;2295731;77;21542;-58
2022/11/25 12:30:15;;;;;;;80.22;41.53;;;;;;;7.60;100.00;99111.04;2301660;77;21016;-59
2022/11/25 12:33:16;;;;;;;78.78;38.53;;;;;;;7.69;100.00;99107.17;2301887;77;21011;-58
2022/11/25 12:36:16;;;;;;;79.42;39.33;;;;;;;7.66;100.00;99099.91;2298254;77;20976;-58
2022/11/25 12:39:17;;;;;;;74.65;36.35;;;;;;;7.67;100.00;99100.31;2304900;77;21101;-58
2022/11/25 12:42:17;;;;;;;75.37;39.48;;;;;;;7.89;100.00;99103.66;2302855;77;20945;-58
2022/11/25 12:45:17;;;;;;;74.97;39.48;;;;;;;7.95;100.00;99105.98;2301827;77;21447;-58
2022/11/25 12:48:18;;;;;;;78.90;39.00;;;;;;;7.98;100.00;99103.23;2306263;77;20940;-58
2022/11/25 12:51:18;;;;;;;83.15;40.73;;;;;;;8.04;100.00;99106.02;2292763;77;20960;-58
2022/11/25 12:54:19;;;;;;;91.12;46.28;;;;;;;7.90;100.00;99102.75;2307732;77;20999;-58
2022/11/25 12:57:19;;;;;;;87.62;47.20;;;;;;;7.90;100.00;99104.06;2301727;77;21019;-59
2022/11/25 13:00:20;;;;;;;89.85;47.60;;;;;;;7.65;100.00;99102.16;2306211;77;20987;-58
2022/11/25 13:03:21;;;;;;;94.90;49.15;;;;;;;7.67;100.00;99096.40;2302009;77;21544;-58
2022/11/25 13:06:21;;;;;;;94.42;45.63;;;;;;;7.42;100.00;99100.94;2304186;77;20963;-59
2022/11/25 13:09:22;;;;;;;82.85;39.42;;;;;;;7.09;100.00;99107.16;2295359;77;21026;-58
2022/11/25 13:12:22;;;;;;;76.55;34.48;;;;;;;7.00;100.00;99114.91;2295885;77;20995;-58
2022/11/25 13:15:23;;;;;;;74.92;37.08;;;;;;;6.87;100.00;99109.82;2296807;77;20997;-59
2022/11/25 13:18:23;;;;;;;76.28;37.15;;;;;;;6.81;100.00;99116.13;2302240;77;20997;-59
2022/11/25 13:21:26;;;;;;;69.87;34.03;;;;;;;6.91;100.00;99112.67;2305986;77;21534;-58
2022/11/25 13:24:26;;;;;;;68.37;33.73;;;;;;;7.01;100.00;99118.36;2304324;77;20980;-58
2022/11/25 13:27:27;;;;;;;82.80;39.42;;;;;;;7.00;100.00;99121.44;2298191;77;21007;-59
2022/11/25 13:30:28;;;;;;;101.33;57.15;;;;;;;6.60;100.00;99121.75;2296977;77;21460;-59
2022/11/25 13:33:28;;;;;;;128.65;83.75;;;;;;;6.72;100.00;99119.97;2302395;77;20969;-58
2022/11/25 13:36:29;;;;;;;99.67;57.67;;;;;;;6.93;100.00;99122.13;2299401;77;20996;-58
2022/11/25 13:39:30;;;;;;;94.80;47.03;;;;;;;6.79;100.00;99121.84;2302358;77;20972;-58
2022/11/25 13:42:30;;;;;;;89.40;44.85;;;;;;;6.57;100.00;99125.33;2299302;77;20977;-58
2022/11/25 13:45:31;;;;;;;91.42;47.60;;;;;;;6.53;100.00;99124.21;2305551;77;21524;-59
2022/11/25 13:48:33;;;;;;;91.35;46.13;;;;;;;6.67;100.00;99124.97;2300850;77;21046;-58
2022/11/25 13:51:33;;;;;;;86.42;43.17;;;;;;;6.79;100.00;99124.92;2296511;77;21002;-58
2022/11/25 13:54:34;;;;;;;74.50;34.65;;;;;;;6.85;100.00;99121.62;2288979;77;20968;-58
2022/11/25 13:57:34;;;;;;;82.17;35.43;;;;;;;6.86;100.00;99125.06;2292880;77;21591;-58
2022/11/25 14:00:35;;;;;;;81.80;36.00;;;;;;;6.92;100.00;99126.98;2301526;77;20983;-58
2022/11/25 14:03:35;;;;;;;89.45;40.48;;;;;;;6.76;100.00;99133.25;2297066;77;21010;-59
2022/11/25 14:06:36;;;;;;;99.20;43.15;;;;;;;6.64;100.00;99136.36;2292252;77;21044;-59
2022/11/25 14:09:37;;;;;;;147.70;60.80;;;;;;;6.49;100.00;99128.67;2306362;77;20964;-59
2022/11/25 14:12:37;;;;;;;113.68;50.80;;;;;;;6.31;100.00;99137.23;2306452;77;21016;-58
2022/11/25 14:15:38;;;;;;;96.80;41.58;;;;;;;6.05;100.00;99138.61;2306317;77;21441;-58
2022/11/25 14:18:39;;;;;;;94.55;41.50;;;;;;;5.93;100.00;99141.63;2302700;77;21055;-59
2022/11/25 14:21:40;;;;;;;93.90;40.23;;;;;;;5.95;100.00;99146.77;2297991;77;21056;-58
2022/11/25 14:24:40;;;;;;;95.22;39.55;;;;;;;5.84;100.00;99147.19;2303289;77;21016;-59
2022/11/25 14:27:41;;;;;;;89.07;39.00;;;;;;;5.73;100.00;99143.66;2296957;77;21491;-59
2022/11/25 14:30:41;;;;;;;86.67;38.53;;;;;;;5.76;100.00;99146.17;2303740;77;21419;-59
2022/11/25 14:33:42;;;;;;;95.53;40.28;;;;;;;5.57;100.00;99147.72;2295663;77;21031;-59
2022/11/25 14:36:42;;;;;;;100.62;43.45;;;;;;;5.58;100.00;99152.03;2295293;77;21056;-59
2022/11/25 14:39:42;;;;;;;98.35;40.00;;;;;;;5.42;100.00;99151.72;2302585;77;20947;-58
2022/11/25 14:42:43;;;;;;;89.72;36.13;;;;;;;5.40;100.00;99153.52;2297509;77;21004;-59
2022/11/25 14:45:44;;;;;;;75.03;32.53;;;;;;;5.27;100.00;99147.87;2302277;77;21024;-59
2022/11/25 14:48:44;;;;;;;80.75;31.85;;;;;;;5.00;100.00;99154.42;2302448;77;21455;-59
2022/11/25 14:51:45;;;;;;;79.92;31.68;;;;;;;5.03;100.00;99147.36;2298807;77;21008;-59
2022/11/25 14:54:47;;;;;;;81.13;31.70;;;;;;;5.00;100.00;99155.27;2306082;77;21451;-58
2022/11/25 14:57:47;;;;;;;99.10;38.85;;;;;;;4.80;100.00;99152.02;2301502;77;21031;-58
2022/11/25 15:00:48;;;;;;;103.25;42.70;;;;;;;4.93;100.00;99155.49;2296729;77;21029;-58
2022/11/25 15:03:48;;;;;;;115.62;44.80;;;;;;;4.75;100.00;99158.25;2306283;77;20956;-58
2022/11/25 15:06:49;;;;;;;114.17;43.70;;;;;;;4.76;100.00;99159.50;2298653;77;21482;-58
2022/11/25 15:09:49;;;;;;;103.12;40.00;;;;;;;4.78;100.00;99162.05;2309537;77;21465;-59
2022/11/25 15:12:50;;;;;;;98.47;40.63;;;;;;;4.69;100.00;99165.80;2303108;77;21003;-58
2022/11/25 15:15:50;;;;;;;103.50;40.45;;;;;;;4.58;100.00;99166.58;2306159;77;21019;-59
2022/11/25 15:18:50;;;;;;;87.90;34.55;;;;;;;4.59;100.00;99159.19;2298604;77;21053;-58
2022/11/25 15:21:51;;;;;;;88.87;37.48;;;;;;;4.66;100.00;99158.94;2304973;77;20987;-59
2022/11/25 15:24:51;;;;;;;95.32;37.80;;;;;;;4.65;100.00;99163.72;2302712;77;20975;-58
2022/11/25 15:27:52;;;;;;;96.60;40.12;;;;;;;4.48;100.00;99160.38;2307363;77;21497;-58
2022/11/25 15:30:52;;;;;;;100.47;41.55;;;;;;;4.57;100.00;99157.06;2302567;77;21030;-58
2022/11/25 15:33:53;;;;;;;109.10;43.50;;;;;;;4.65;100.00;99161.59;2303670;77;20974;-59
2022/11/25 15:36:53;;;;;;;103.35;42.98;;;;;;;4.77;100.00;99163.81;2304629;77;20995;-58
2022/11/25 15:39:54;;;;;;;118.85;51.98;;;;;;;4.57;100.00;99162.27;2306016;77;20976;-58
2022/11/25 15:42:54;;;;;;;117.72;51.25;;;;;;;4.54;100.00;99163.66;2301709;77;21459;-59
2022/11/25 15:45:56;;;;;;;102.42;45.40;;;;;;;4.75;100.00;99170.78;2297445;77;20992;-58
2022/11/25 15:48:57;;;;;;;106.10;40.83;;;;;;;4.68;100.00;99171.88;2288783;77;21056;-59
2022/11/25 15:51:58;;;;;;;98.20;40.90;;;;;;;4.67;100.00;99168.90;2302895;77;21403;-58
2022/11/25 15:54:58;;;;;;;100.18;41.65;;;;;;;4.58;100.00;99170.01;2303216;77;21458;-58
2022/11/25 15:57:58;;;;;;;96.25;40.70;;;;;;;4.59;100.00;99170.42;2305291;77;20971;-58
2022/11/25 16:00:59;;;;;;;99.75;40.75;;;;;;;4.66;100.00;99174.53;2294081;77;20979;-58
2022/11/25 16:03:59;;;;;;;95.32;38.85;;;;;;;4.54;100.00;99174.05;2297188;77;20987;-58
2022/11/25 16:07:01;;;;;;;108.35;42.83;;;;;;;4.60;100.00;99168.69;2302383;77;21019;-58
2022/11/25 16:10:01;;;;;;;96.08;39.10;;;;;;;4.54;100.00;99174.05;2293939;77;21079;-59
2022/11/25 16:13:02;;;;;;;103.45;42.10;;;;;;;4.43;100.00;99166.14;2306175;77;21027;-58
2022/11/25 16:16:02;;;;;;;163.77;70.67;;;;;;;4.53;100.00;99171.08;2292658;77;21023;-58
2022/11/25 16:19:03;;;;;;;139.22;60.33;;;;;;;4.46;100.00;99169.95;2299593;77;21035;-58
2022/11/25 16:22:04;;;;;;;121.55;52.95;;;;;;;4.54;100.00;99167.56;2303397;77;21084;-58
2022/11/25 16:25:05;;;;;;;203.15;89.85;;;;;;;4.49;100.00;99171.61;2291872;77;20985;-59
2022/11/25 16:28:09;;;;;;;120.53;54.15;;;;;;;4.54;100.00;99167.56;2302654;77;20956;-59
2022/11/25 16:31:07;;;;;;;122.47;53.60;;;;;;;4.51;100.00;99175.86;2268241;77;21000;-58
2022/11/25 16:34:08;;;;;;;113.85;49.27;;;;;;;4.54;100.00;99179.25;2298003;77;20996;-58
2022/11/25 16:37:09;;;;;;;117.22;48.15;;;;;;;4.51;100.00;99173.27;2306235;77;20977;-58
2022/11/25 16:40:09;;;;;;;118.60;48.55;;;;;;;4.20;100.00;99177.23;2302418;77;20960;-59
2022/11/25 16:43:09;;;;;;;120.75;50.25;;;;;;;4.28;100.00;99176.98;2298292;77;21007;-58
2022/11/25 16:46:10;;;;;;;109.78;50.33;;;;;;;4.15;100.00;99177.80;2301590;77;20998;-59
2022/11/25 16:49:11;;;;;;;111.57;46.63;;;;;;;4.22;100.00;99176.72;2301155;77;21006;-58
2022/11/25 16:52:11;;;;;;;103.22;44.30;;;;;;;4.36;100.00;99181.97;2299256;77;21062;-58
2022/11/25 16:55:12;;;;;;;129.95;53.78;;;;;;;4.29;100.00;99185.19;2264423;79;21019;-58
2022/11/25 16:58:12;;;;;;;112.25;45.33;;;;;;;4.24;100.00;99181.87;2250460;78;21004;-58
2022/11/25 17:01:13;;;;;;;103.87;42.43;;;;;;;4.17;100.00;99187.70;2239132;78;20985;-58
2022/11/25 17:04:14;;;;;;;136.05;65.92;;;;;;;4.22;100.00;99191.46;2250665;79;21044;-58
2022/11/25 17:07:14;;;;;;;150.70;66.05;;;;;;;4.30;100.00;99187.73;2260654;78;21522;-58
2022/11/25 17:10:15;;;;;;;133.35;56.08;;;;;;;4.01;100.00;99194.22;2255935;78;21426;-58
2022/11/25 17:13:15;;;;;;;120.10;53.75;;;;;;;3.96;100.00;99193.89;2265159;78;21007;-58
2022/11/25 17:16:16;;;;;;;135.57;55.83;;;;;;;4.05;100.00;99197.13;2250190;78;20983;-58
2022/11/25 17:19:17;;;;;;;123.25;53.98;;;;;;;4.02;100.00;99201.12;2302128;77;21079;-58
2022/11/25 17:22:18;;;;;;;121.67;55.92;;;;;;;4.15;100.00;99201.16;2304763;77;21518;-58
2022/11/25 17:25:20;;;;;;;132.78;62.50;;;;;;;4.23;100.00;99199.66;2292692;77;21481;-58
2022/11/25 17:28:20;;;;;;;178.40;77.25;;;;;;;4.33;100.00;99205.83;2306971;77;21083;-59
2022/11/25 17:31:21;;;;;;;353.80;130.18;;;;;;;4.18;100.00;99205.42;2306145;77;21035;-58
2022/11/25 17:34:21;;;;;;;276.62;104.75;;;;;;;4.17;100.00;99207.18;2300522;77;21490;-58
2022/11/25 17:37:22;;;;;;;246.32;90.55;;;;;;;4.17;100.00;99216.27;2295091;77;20987;-58
2022/11/25 17:40:23;;;;;;;215.97;80.22;;;;;;;4.12;100.00;99210.34;2308272;77;21036;-58
2022/11/25 17:43:24;;;;;;;230.10;86.67;;;;;;;4.09;100.00;99212.57;2301580;77;21000;-59
2022/11/25 17:46:28;;;;;;;189.03;73.57;;;;;;;4.25;100.00;99219.50;2298235;77;20977;-58
2022/11/25 17:49:26;;;;;;;153.47;62.30;;;;;;;4.33;100.00;99213.61;2263863;77;20953;-58
2022/11/25 17:52:27;;;;;;;121.17;50.45;;;;;;;4.31;100.00;99218.45;2301671;77;20988;-58
2022/11/25 17:55:27;;;;;;;119.72;51.30;;;;;;;4.08;100.00;99218.69;2282351;77;21494;-58
2022/11/25 17:58:28;;;;;;;103.05;42.58;;;;;;;4.19;100.00;99224.02;2302351;77;21051;-60
2022/11/25 18:01:28;;;;;;;106.47;44.50;;;;;;;4.16;100.00;99220.59;2250710;78;20988;-58
2022/11/25 18:04:29;;;;;;;105.70;45.67;;;;;;;4.15;100.00;99218.03;2252471;78;20978;-58
2022/11/25 18:07:29;;;;;;;110.65;47.25;;;;;;;4.26;100.00;99221.64;2265633;79;20952;-58
2022/11/25 18:10:29;;;;;;;109.48;48.92;;;;;;;4.12;100.00;99220.73;2251655;78;20981;-59
2022/11/25 18:13:30;;;;;;;101.65;45.55;;;;;;;4.29;100.00;99222.39;2257312;78;21774;-59
2022/11/25 18:16:32;;;;;;;143.80;70.57;;;;;;;4.25;100.00;99226.00;2259197;78;21015;-60
2022/11/25 18:19:33;;;;;;;;;;;;;;;4.22;100.00;99227.36;2264177;78;21126;-59
2022/11/25 18:22:33;;;;;;;147.87;66.85;;;;;;;4.07;100.00;99221.33;2248303;78;20456;-58
2022/11/25 18:25:34;;;;;;;126.02;53.65;;;;;;;4.03;100.00;99219.24;2252192;78;21027;-58
2022/11/25 18:28:34;;;;;;;117.42;47.33;;;;;;;4.16;100.00;99223.64;2254596;78;21023;-58
2022/11/25 18:31:34;;;;;;;110.12;46.37;;;;;;;4.09;100.00;99215.17;2260174;78;21007;-58
2022/11/25 18:34:35;;;;;;;100.10;42.38;;;;;;;3.95;100.00;99215.58;2257999;78;21103;-58
2022/11/25 18:37:35;;;;;;;97.17;42.23;;;;;;;3.92;100.00;99219.55;2256721;79;21493;-58
2022/11/25 18:40:38;;;;;;;101.90;43.17;;;;;;;3.91;100.00;99226.93;2298553;77;21498;-58
2022/11/25 18:43:38;;;;;;;112.88;49.25;;;;;;;3.95;100.00;99229.84;2268887;77;20977;-58
2022/11/25 18:46:39;;;;;;;117.00;50.12;;;;;;;3.92;100.00;99244.64;2305001;77;21511;-58
2022/11/25 18:49:39;;;;;;;95.92;40.33;;;;;;;4.11;100.00;99239.81;2299354;77;21534;-58
2022/11/25 18:52:39;;;;;;;101.72;44.10;;;;;;;4.05;100.00;99243.43;2297901;77;21016;-58
2022/11/25 18:55:40;;;;;;;132.00;61.68;;;;;;;3.90;100.00;99245.98;2297362;77;20990;-58
2022/11/25 18:58:40;;;;;;;127.25;56.08;;;;;;;3.99;100.00;99248.77;2306394;77;20971;-58
2022/11/25 19:01:41;;;;;;;116.25;52.67;;;;;;;3.98;100.00;99250.98;2301554;77;21007;-59
2022/11/25 19:04:41;;;;;;;140.30;60.15;;;;;;;4.08;100.00;99243.34;2292990;77;21487;-58
2022/11/25 19:07:41;;;;;;;125.02;53.55;;;;;;;4.01;100.00;99248.30;2304483;77;21598;-59
2022/11/25 19:10:42;;;;;;;118.10;53.38;;;;;;;3.92;100.00;99255.89;2296724;77;21000;-58
2022/11/25 19:13:47;;;;;;;114.80;50.35;;;;;;;4.03;100.00;99255.59;2302927;77;20977;-59
2022/11/25 19:16:45;;;;;;;108.35;46.60;;;;;;;4.07;100.00;99253.31;2268331;77;21506;-58
2022/11/25 19:19:46;;;;;;;108.80;46.37;;;;;;;4.20;100.00;99253.83;2293972;77;21044;-58
2022/11/25 19:22:46;;;;;;;115.97;46.28;;;;;;;4.20;100.00;99252.53;2303077;77;20973;-58
2022/11/25 19:25:47;;;;;;;102.80;42.78;;;;;;;4.23;100.00;99251.59;2301831;77;21011;-58
2022/11/25 19:28:48;;;;;;;103.58;42.83;;;;;;;4.41;100.00;99250.20;2292396;77;20995;-59
2022/11/25 19:31:49;;;;;;;109.10;44.67;;;;;;;4.30;100.00;99259.16;2298006;77;21068;-58
2022/11/25 19:34:49;;;;;;;111.05;44.60;;;;;;;4.20;100.00;99253.83;2304111;77;20964;-59
2022/11/25 19:37:50;;;;;;;115.50;47.05;;;;;;;4.22;100.00;99258.52;2240704;78;20992;-58
2022/11/25 19:40:52;;;;;;;119.02;47.10;;;;;;;4.25;100.00;99261.48;2248177;78;21467;-59
2022/11/25 19:43:52;;;;;;;113.70;47.65;;;;;;;4.27;100.00;99272.69;2252087;78;21031;-58